Terminal Aerodrome Forecast
Issued by NWS Melbourne, FL

Home | Current Version | Previous Version | Text Only | Print | Product List | Glossary On
Versions: 1 2 3 4 5 6 7 8 9 10 11 12
000
FTUS42 KMLB 221700 RRA
TAFMLB
TAF
KMLB 221745Z 2218/2318 09014G20KT P6SM BKN025 OVC035
     FM230200 09014G20KT 5SM -SHRA BR BKN015
     FM231400 16014G20KT P6SM SCT025 BKN040
      TEMPO 2314/2316 BKN025=

USA.gov is the U.S. government's official web portal to all federal, state and local government web resources and services.